createdAt,value
2018-12-22T07:46:40.240Z,7.40
2018-12-22T07:49:09.278Z,7.40
2018-12-22T07:51:37.541Z,7.30
2018-12-22T07:54:05.754Z,7.40
2018-12-22T07:56:33.954Z,7.40
2018-12-22T07:59:02.172Z,7.40
2018-12-22T08:01:30.447Z,7.30
2018-12-22T08:03:58.665Z,7.30
2018-12-22T08:06:26.858Z,7.30
2018-12-22T08:09:00.282Z,7.30
2018-12-22T08:11:28.560Z,7.40
2018-12-22T08:13:56.805Z,7.40
2018-12-22T08:16:24.997Z,7.40
2018-12-22T08:18:53.186Z,7.40
2018-12-22T08:21:21.390Z,7.40
2018-12-22T08:23:49.582Z,7.40
2018-12-22T08:26:17.798Z,7.40
2018-12-22T08:28:45.990Z,7.40
2018-12-22T08:31:14.282Z,7.40
2018-12-22T08:33:45.790Z,7.40
2018-12-22T08:36:14.006Z,7.40
2018-12-22T08:38:42.198Z,7.40
2018-12-22T08:41:10.570Z,7.40
2018-12-22T08:43:38.927Z,7.40
2018-12-22T08:46:07.273Z,7.50
2018-12-22T08:48:35.541Z,7.40
2018-12-22T08:51:03.758Z,7.50
2018-12-22T08:53:32.074Z,7.40
2018-12-22T08:56:00.296Z,7.40
2018-12-22T08:58:28.501Z,7.40
2018-12-22T09:00:56.716Z,7.50
2018-12-22T09:03:24.906Z,7.40
2018-12-22T09:05:53.122Z,7.50
2018-12-22T09:08:21.336Z,7.50
2018-12-22T09:10:49.547Z,7.60
2018-12-22T09:13:20.963Z,7.60
2018-12-22T09:15:48.052Z,7.60
2018-12-22T09:18:16.244Z,7.50
2018-12-22T09:20:44.460Z,7.50
2018-12-22T09:23:12.734Z,7.50
2018-12-22T09:25:40.950Z,7.50
2018-12-22T09:28:09.148Z,7.50
2018-12-22T09:30:37.354Z,7.50
2018-12-22T09:33:05.570Z,7.50
2018-12-22T09:35:33.912Z,7.40
2018-12-22T09:38:02.115Z,7.40
2018-12-22T09:40:30.319Z,7.40
2018-12-22T09:42:58.619Z,7.30
2018-12-22T09:45:26.818Z,7.40
2018-12-22T09:47:55.033Z,7.30
2018-12-22T09:50:23.234Z,7.30
2018-12-22T09:52:51.476Z,7.30
2018-12-22T09:55:19.826Z,7.30
2018-12-22T09:57:48.033Z,7.30
2018-12-22T10:00:16.312Z,7.30
2018-12-22T10:02:44.526Z,7.30
2018-12-22T10:05:12.810Z,7.30
2018-12-22T10:07:41.025Z,7.20
2018-12-22T10:10:15.324Z,7.20
2018-12-22T10:12:43.536Z,7.10
2018-12-22T10:15:11.809Z,7.00
2018-12-22T10:17:40.171Z,7.00
2018-12-22T10:20:08.909Z,7.00
2018-12-22T10:22:37.114Z,7.00
2018-12-22T10:25:08.498Z,7.00
2018-12-22T10:27:36.725Z,7.00
2018-12-22T10:30:07.281Z,7.00
2018-12-22T10:32:35.498Z,6.90
2018-12-22T10:35:04.074Z,6.90
2018-12-22T10:37:32.286Z,7.00
2018-12-22T10:40:00.487Z,7.00
2018-12-22T10:42:28.707Z,7.00
2018-12-22T10:44:56.905Z,7.00
2018-12-22T10:47:25.115Z,7.00
2018-12-22T10:49:53.314Z,7.00
2018-12-22T10:52:21.655Z,7.00
2018-12-22T10:54:49.851Z,7.00
2018-12-22T10:57:18.062Z,6.90
2018-12-22T10:59:46.266Z,6.90
2018-12-22T11:02:14.574Z,6.80
2018-12-22T11:04:42.770Z,6.90
2018-12-22T11:09:45.598Z,6.90
2018-12-22T11:12:13.870Z,6.90
2018-12-22T11:14:42.077Z,6.90
2018-12-22T11:17:10.362Z,6.90
2018-12-22T11:19:38.578Z,6.90
2018-12-22T11:22:06.771Z,6.90
2018-12-22T11:24:35.005Z,7.00
2018-12-22T11:27:03.286Z,6.90
2018-12-22T11:29:31.645Z,6.90
2018-12-22T11:31:59.893Z,6.90
2018-12-22T11:34:28.108Z,6.80
2018-12-22T11:36:56.294Z,6.80
2018-12-22T11:39:24.506Z,6.90
2018-12-22T11:41:52.701Z,7.00
2018-12-22T11:44:20.911Z,7.00
2018-12-22T11:46:49.147Z,7.10
2018-12-22T11:49:31.845Z,7.10
2018-12-22T11:52:00.077Z,7.20
2018-12-22T11:54:28.286Z,7.30
2018-12-22T11:56:56.518Z,7.20
2018-12-22T11:59:24.815Z,7.30
2018-12-22T12:01:53.092Z,7.40
2018-12-22T12:04:21.304Z,7.30
2018-12-22T12:06:49.506Z,7.20
2018-12-22T12:09:17.738Z,7.30
2018-12-22T12:11:46.020Z,7.30
2018-12-22T12:14:14.240Z,7.30
2018-12-22T12:16:47.023Z,7.30
2018-12-22T12:19:21.961Z,7.20
2018-12-22T12:21:50.151Z,7.20
2018-12-22T12:24:18.443Z,7.20
2018-12-22T12:26:46.797Z,7.20
2018-12-22T12:29:15.016Z,7.10
2018-12-22T12:31:43.209Z,7.00
2018-12-22T12:34:11.421Z,7.00
2018-12-22T12:36:39.621Z,7.00
2018-12-22T12:39:11.213Z,6.90
2018-12-22T12:41:39.530Z,6.90
2018-12-22T12:44:07.825Z,6.80
2018-12-22T12:46:45.259Z,6.80
2018-12-22T12:49:14.047Z,6.70
2018-12-22T12:51:42.253Z,6.70
2018-12-22T12:54:10.454Z,6.60
2018-12-22T12:56:57.738Z,6.60
2018-12-22T12:59:26.994Z,6.50
2018-12-22T13:02:03.268Z,6.40
2018-12-22T13:04:31.498Z,6.40
2018-12-22T13:06:59.774Z,6.40
2018-12-22T13:09:27.993Z,6.30
2018-12-22T13:11:59.010Z,6.40
2018-12-22T13:14:27.211Z,6.30
2018-12-22T13:16:55.431Z,6.40
2018-12-22T13:19:23.618Z,6.40
2018-12-22T13:21:53.599Z,6.40
2018-12-22T13:24:21.802Z,6.40
2018-12-22T13:26:50.023Z,6.40
2018-12-22T13:29:18.216Z,6.40
2018-12-22T13:31:46.772Z,6.30
2018-12-22T13:34:14.974Z,6.30
2018-12-22T13:36:43.186Z,6.20
2018-12-22T13:39:18.552Z,6.20
2018-12-22T13:41:46.778Z,6.30
2018-12-22T13:44:14.977Z,6.20
2018-12-22T13:46:43.181Z,6.20
2018-12-22T13:49:11.610Z,6.30
2018-12-22T13:51:42.142Z,6.30
2018-12-22T13:54:10.368Z,6.30
2018-12-22T13:56:38.674Z,6.30
2018-12-22T13:59:06.946Z,6.30
2018-12-22T14:01:38.428Z,6.20
2018-12-22T14:04:06.621Z,6.10
2018-12-22T14:06:39.157Z,6.10
2018-12-22T14:09:08.320Z,6.10
2018-12-22T14:11:36.560Z,6.00
2018-12-22T14:14:05.454Z,6.00
2018-12-22T14:16:38.834Z,5.90
2018-12-22T14:19:08.506Z,5.90
2018-12-22T14:21:36.849Z,5.80
2018-12-22T14:24:17.398Z,5.80
2018-12-22T14:26:46.592Z,5.80
2018-12-22T14:29:21.514Z,5.70
2018-12-22T14:31:49.727Z,5.70
2018-12-22T14:34:23.410Z,5.60
2018-12-22T14:36:51.782Z,5.60
2018-12-22T14:39:19.969Z,5.60
2018-12-22T14:41:48.178Z,5.60
2018-12-22T14:44:16.370Z,5.60
2018-12-22T14:46:44.582Z,5.50
2018-12-22T14:49:12.779Z,5.50
2018-12-22T14:51:41.067Z,5.50
2018-12-22T14:54:12.334Z,5.50
2018-12-22T14:56:43.319Z,5.50
2018-12-22T14:59:13.573Z,5.50
2018-12-22T15:01:41.983Z,5.40
2018-12-22T15:04:10.306Z,5.40
2018-12-22T15:06:38.583Z,5.40
2018-12-22T15:09:13.275Z,5.40
2018-12-22T15:11:37.636Z,5.30
2018-12-22T15:14:05.929Z,5.30
2018-12-22T15:16:34.130Z,5.40
2018-12-22T15:19:02.351Z,5.30
2018-12-22T15:21:30.550Z,5.30
2018-12-22T15:23:58.809Z,5.20
2018-12-22T15:26:27.001Z,5.20
2018-12-22T15:28:55.287Z,5.20
2018-12-22T15:31:23.477Z,5.20
2018-12-22T15:33:51.770Z,5.20
2018-12-22T15:36:19.968Z,5.20
2018-12-22T15:38:48.177Z,5.10
2018-12-22T15:41:16.374Z,5.10
2018-12-22T15:43:44.581Z,5.10
2018-12-22T15:46:12.865Z,5.10
2018-12-22T15:48:41.088Z,5.10
2018-12-22T15:51:09.289Z,5.10
2018-12-22T15:53:37.506Z,5.10
2018-12-22T15:56:05.697Z,5.10
2018-12-22T15:58:33.987Z,5.10
2018-12-22T16:01:02.186Z,5.00
2018-12-22T16:03:30.409Z,5.00
2018-12-22T16:05:58.609Z,5.10
2018-12-22T16:08:26.901Z,5.10
2018-12-22T16:10:55.199Z,5.10
2018-12-22T16:13:23.423Z,5.00
2018-12-22T16:15:51.618Z,5.00
2018-12-22T16:18:19.845Z,4.90
2018-12-22T16:20:48.150Z,4.90
2018-12-22T16:23:16.370Z,4.90
2018-12-22T16:25:44.585Z,4.90
2018-12-22T16:28:17.410Z,4.90
2018-12-22T16:30:48.425Z,4.90
2018-12-22T16:33:16.613Z,4.90
2018-12-22T16:35:44.862Z,4.80
2018-12-22T16:38:13.054Z,4.80
2018-12-22T16:40:41.430Z,4.80
2018-12-22T16:43:12.075Z,4.70
2018-12-22T16:45:43.454Z,4.70
2018-12-22T16:48:11.667Z,4.70
2018-12-22T16:50:40.965Z,4.70
2018-12-22T16:53:09.164Z,4.70
2018-12-22T16:55:37.375Z,4.70
2018-12-22T16:58:11.378Z,4.70
2018-12-22T17:00:45.734Z,4.70
2018-12-22T17:03:13.934Z,4.70
2018-12-22T17:05:42.154Z,4.70
2018-12-22T17:08:10.358Z,4.70
2018-12-22T17:10:41.604Z,4.60
2018-12-22T17:13:10.729Z,4.70
2018-12-22T17:15:42.414Z,4.60
2018-12-22T17:18:10.610Z,4.60
2018-12-22T17:20:38.906Z,4.60
2018-12-22T17:24:12.118Z,4.60
2018-12-22T17:26:43.441Z,4.60
2018-12-22T17:29:11.645Z,4.50
2018-12-22T17:31:41.143Z,4.50
2018-12-22T17:34:09.368Z,4.40
2018-12-22T17:36:37.590Z,4.40
2018-12-22T17:39:08.458Z,4.40
2018-12-22T17:41:36.679Z,4.30
2018-12-22T17:44:04.874Z,4.30
2018-12-22T17:46:33.131Z,4.30
2018-12-22T17:49:01.331Z,4.30
2018-12-22T17:51:29.551Z,4.30
2018-12-22T17:53:57.746Z,4.30
2018-12-22T17:56:26.163Z,4.30
2018-12-22T17:58:54.361Z,4.30
2018-12-22T18:01:22.704Z,4.30
2018-12-22T18:03:50.914Z,4.30
2018-12-22T18:06:19.148Z,4.30
2018-12-22T18:08:47.455Z,4.30
2018-12-22T18:11:15.676Z,4.30
2018-12-22T18:13:43.874Z,4.30
2018-12-22T18:16:12.106Z,4.30
2018-12-22T18:18:41.332Z,4.30
2018-12-22T18:21:09.553Z,4.30
2018-12-22T18:23:37.763Z,4.30
2018-12-22T18:26:06.124Z,4.30
2018-12-22T18:28:36.052Z,4.20
2018-12-22T18:31:04.352Z,4.20
2018-12-22T18:33:36.014Z,4.20
2018-12-22T18:36:02.867Z,4.20
2018-12-22T18:38:31.088Z,4.20
2018-12-22T18:40:59.282Z,4.10
2018-12-22T18:43:27.499Z,4.20
2018-12-22T18:45:55.691Z,4.20
2018-12-22T18:48:23.987Z,4.10
2018-12-22T18:50:52.185Z,4.10
2018-12-22T18:53:20.395Z,4.10
2018-12-22T18:55:48.590Z,4.10
2018-12-22T18:58:16.805Z,4.10
2018-12-22T19:00:45.082Z,4.10
2018-12-22T19:03:13.294Z,4.10
2018-12-22T19:05:41.582Z,4.10
2018-12-22T19:08:13.012Z,4.00
2018-12-22T19:10:45.181Z,4.00
2018-12-22T19:13:13.394Z,4.10
2018-12-22T19:15:41.581Z,4.00
2018-12-22T19:18:09.802Z,4.00
2018-12-22T19:20:47.469Z,4.00
2018-12-22T19:23:16.013Z,4.00
2018-12-22T19:25:44.217Z,4.00
2018-12-22T19:28:12.430Z,4.00
2018-12-22T19:30:40.629Z,3.90
2018-12-22T19:33:08.842Z,4.00
2018-12-22T19:35:37.037Z,4.00
2018-12-22T19:38:05.241Z,4.00
2018-12-22T19:40:33.437Z,4.00
2018-12-22T19:43:01.646Z,4.00
2018-12-22T19:45:29.834Z,4.00
2018-12-22T19:47:58.047Z,3.90
2018-12-22T19:50:26.248Z,3.90
2018-12-22T19:52:54.459Z,3.90
2018-12-22T19:55:29.106Z,3.80
2018-12-22T19:57:57.325Z,3.90
2018-12-22T20:00:25.528Z,3.80
2018-12-22T20:02:53.803Z,3.90
2018-12-22T20:05:22.014Z,3.80
2018-12-22T20:07:50.218Z,3.90
2018-12-22T20:10:18.446Z,3.80
2018-12-22T20:12:46.646Z,3.90
2018-12-22T20:15:14.854Z,3.80
2018-12-22T20:17:43.050Z,3.80
2018-12-22T20:20:11.259Z,3.80
2018-12-22T20:22:39.458Z,3.90
2018-12-22T20:25:07.754Z,3.90
2018-12-22T20:27:35.946Z,3.90
2018-12-22T20:30:04.714Z,3.90
2018-12-22T20:32:32.905Z,3.90
2018-12-22T20:35:01.214Z,3.90
2018-12-22T20:37:29.410Z,3.90
2018-12-22T20:39:57.623Z,3.90
2018-12-22T20:42:25.817Z,3.90
2018-12-22T20:44:54.025Z,3.90
2018-12-22T20:47:22.331Z,3.90
2018-12-22T20:49:50.545Z,3.90
2018-12-22T20:52:18.742Z,3.80
2018-12-22T20:54:46.959Z,3.90
2018-12-22T20:57:21.727Z,3.80
2018-12-22T20:59:49.938Z,3.80
2018-12-22T21:02:18.142Z,3.80
2018-12-22T21:04:46.433Z,3.80
2018-12-22T21:07:14.626Z,3.80
2018-12-22T21:09:43.038Z,3.80
2018-12-22T21:12:11.234Z,3.80
2018-12-22T21:14:39.438Z,3.80
2018-12-22T21:17:07.660Z,3.80
2018-12-22T21:19:35.855Z,3.80
2018-12-22T21:22:04.067Z,3.80
2018-12-22T21:24:32.257Z,3.80
2018-12-22T21:27:00.478Z,3.80
2018-12-22T21:29:28.669Z,3.80
2018-12-22T21:31:56.978Z,3.80
2018-12-22T21:34:28.417Z,3.80
2018-12-22T21:36:55.426Z,3.80
2018-12-22T21:39:23.638Z,3.80
2018-12-22T21:41:51.870Z,3.80
2018-12-22T21:44:20.071Z,3.80
2018-12-22T21:46:48.289Z,3.80
2018-12-22T21:49:16.491Z,3.90
